createdAt,value
2023-02-16T00:00:24.103Z,72.33
2023-02-16T00:03:19.197Z,72.40
2023-02-16T00:05:47.607Z,89.47
2023-02-16T00:08:14.471Z,93.10
2023-02-16T00:10:41.793Z,87.37
2023-02-16T00:13:52.837Z,90.97
2023-02-16T00:16:22.171Z,82.97
2023-02-16T00:18:49.675Z,82.40
2023-02-16T00:21:18.685Z,85.63
2023-02-16T00:23:45.901Z,85.90
2023-02-16T00:26:22.895Z,83.90
2023-02-16T00:28:58.416Z,84.03
2023-02-16T00:31:28.960Z,86.47
2023-02-16T00:33:55.974Z,83.00
2023-02-16T00:36:23.609Z,76.23
2023-02-16T00:38:50.938Z,77.27
2023-02-16T00:41:43.633Z,81.27
2023-02-16T00:44:27.027Z,79.50
2023-02-16T00:46:54.816Z,78.27
2023-02-16T00:49:22.433Z,75.30
2023-02-16T00:51:50.167Z,80.13
2023-02-16T00:54:17.174Z,78.17
2023-02-16T00:56:46.192Z,73.33
2023-02-16T00:59:20.245Z,75.07
2023-02-16T01:01:47.856Z,71.50
2023-02-16T01:04:23.379Z,71.97
2023-02-16T01:07:09.451Z,70.20
2023-02-16T01:09:54.980Z,69.07
2023-02-16T01:12:22.730Z,67.30
2023-02-16T01:14:54.155Z,75.40
2023-02-16T01:17:24.069Z,76.43
2023-02-16T01:19:54.045Z,75.37
2023-02-16T01:22:21.039Z,70.97
2023-02-16T01:24:47.837Z,73.47
2023-02-16T01:27:14.932Z,76.73
2023-02-16T01:29:44.401Z,70.93
2023-02-16T01:32:14.622Z,65.87
2023-02-16T01:34:41.509Z,57.77
2023-02-16T01:37:15.487Z,59.53
2023-02-16T01:39:43.624Z,61.73
2023-02-16T01:42:24.756Z,59.53
2023-02-16T01:44:57.210Z,57.67
2023-02-16T01:47:29.022Z,55.70
2023-02-16T01:49:55.938Z,59.87
2023-02-16T01:52:34.470Z,66.27
2023-02-16T01:55:07.648Z,65.80
2023-02-16T01:57:49.541Z,66.90
2023-02-16T02:00:30.105Z,72.17
2023-02-16T02:03:20.220Z,81.90
2023-02-16T02:05:49.182Z,76.00
2023-02-16T02:08:27.712Z,69.27
2023-02-16T02:11:07.014Z,66.63
2023-02-16T02:14:01.023Z,67.97
2023-02-16T02:16:28.947Z,66.87
2023-02-16T02:18:56.339Z,64.67
2023-02-16T02:22:19.018Z,61.67
2023-02-16T02:25:23.900Z,60.20
2023-02-16T02:28:05.628Z,59.07
2023-02-16T02:30:38.791Z,57.37
2023-02-16T02:33:25.918Z,58.70
2023-02-16T02:36:22.340Z,57.53
2023-02-16T02:39:34.784Z,57.10
2023-02-16T02:42:13.775Z,54.17
2023-02-16T02:44:52.985Z,58.67
2023-02-16T02:47:20.395Z,55.37
2023-02-16T02:49:54.604Z,57.93
2023-02-16T02:52:22.574Z,59.50
2023-02-16T02:55:08.988Z,57.57
2023-02-16T02:58:01.922Z,52.23
2023-02-16T03:00:51.533Z,54.63
2023-02-16T03:03:42.428Z,54.33
2023-02-16T03:06:15.343Z,52.30
2023-02-16T03:08:45.979Z,52.67
2023-02-16T03:11:39.338Z,53.90
2023-02-16T03:14:15.379Z,53.60
2023-02-16T03:16:46.961Z,56.53
2023-02-16T03:19:37.004Z,69.13
2023-02-16T03:22:23.545Z,68.57
2023-02-16T03:25:09.378Z,76.20
2023-02-16T03:28:01.793Z,70.13
2023-02-16T03:30:30.397Z,63.53
2023-02-16T03:32:57.281Z,61.17
2023-02-16T03:35:24.693Z,59.03
2023-02-16T03:37:51.540Z,61.10
2023-02-16T03:40:28.265Z,63.70
2023-02-16T03:43:06.394Z,61.20
2023-02-16T03:45:37.075Z,65.30
2023-02-16T03:48:04.292Z,63.10
2023-02-16T03:50:31.567Z,66.33
2023-02-16T03:53:06.875Z,67.60
2023-02-16T03:55:36.515Z,62.27
2023-02-16T03:58:04.298Z,61.20
2023-02-16T04:00:32.117Z,62.77
2023-02-16T04:02:58.924Z,61.13
2023-02-16T04:05:26.758Z,63.83
2023-02-16T04:07:53.968Z,61.40
2023-02-16T04:10:21.201Z,59.63
2023-02-16T04:12:47.974Z,59.97
2023-02-16T04:15:21.016Z,60.70
2023-02-16T04:17:48.395Z,61.43
2023-02-16T04:20:21.706Z,68.07
2023-02-16T04:22:49.694Z,62.13
2023-02-16T04:25:18.854Z,64.83
2023-02-16T04:27:46.516Z,66.00
2023-02-16T04:30:17.999Z,72.13
2023-02-16T04:32:45.062Z,66.50
2023-02-16T04:35:12.498Z,74.13
2023-02-16T04:37:39.261Z,76.10
2023-02-16T04:40:08.166Z,77.10
2023-02-16T04:42:34.900Z,70.63
2023-02-16T04:45:01.917Z,61.40
2023-02-16T04:47:28.716Z,67.37
2023-02-16T04:49:55.804Z,74.77
2023-02-16T04:52:22.550Z,67.53
2023-02-16T04:54:49.745Z,60.90
2023-02-16T04:57:17.451Z,61.90
2023-02-16T04:59:44.495Z,82.67
2023-02-16T05:02:11.214Z,61.70
2023-02-16T05:04:38.339Z,62.00
2023-02-16T05:07:05.129Z,55.37
2023-02-16T05:09:32.118Z,55.87
2023-02-16T05:12:17.583Z,59.67
2023-02-16T05:14:45.409Z,64.43
2023-02-16T05:17:23.430Z,66.70
2023-02-16T05:19:53.978Z,72.43
2023-02-16T05:22:21.208Z,72.13
2023-02-16T05:24:48.598Z,65.63
2023-02-16T05:27:26.223Z,68.20
2023-02-16T05:29:53.292Z,74.27
2023-02-16T05:32:20.917Z,62.13
2023-02-16T05:34:48.344Z,58.53
2023-02-16T05:37:17.312Z,59.20
2023-02-16T05:39:44.772Z,61.90
2023-02-16T05:42:11.870Z,60.83
2023-02-16T05:44:39.052Z,63.40
2023-02-16T05:47:05.836Z,63.00
2023-02-16T05:49:32.853Z,66.43
2023-02-16T05:51:59.676Z,73.13
2023-02-16T05:54:27.915Z,68.57
2023-02-16T05:56:55.465Z,69.30
2023-02-16T05:59:22.908Z,69.47
2023-02-16T06:01:52.100Z,69.77
2023-02-16T06:04:21.040Z,65.77
2023-02-16T06:06:48.461Z,67.40
2023-02-16T06:09:16.047Z,64.43
2023-02-16T06:11:43.263Z,65.03
2023-02-16T06:14:14.426Z,63.20
2023-02-16T06:16:44.292Z,61.87
2023-02-16T06:19:11.757Z,64.40
2023-02-16T06:21:39.368Z,63.47
2023-02-16T06:24:08.046Z,65.30
2023-02-16T06:26:34.961Z,66.67
2023-02-16T06:29:02.668Z,71.03
2023-02-16T06:31:29.697Z,72.47
2023-02-16T06:33:57.126Z,70.53
2023-02-16T06:36:25.031Z,72.10
2023-02-16T06:38:52.920Z,72.10
2023-02-16T06:41:31.851Z,68.23
2023-02-16T06:44:00.784Z,67.43
2023-02-16T06:46:28.007Z,65.97
2023-02-16T06:48:55.166Z,67.50
2023-02-16T06:51:22.080Z,64.07
2023-02-16T06:53:49.374Z,66.53
2023-02-16T06:56:16.484Z,68.03
2023-02-16T06:58:43.682Z,67.97
2023-02-16T07:01:10.850Z,68.90
2023-02-16T07:03:38.038Z,64.90
2023-02-16T07:06:05.044Z,63.83
2023-02-16T07:08:32.248Z,63.00
2023-02-16T07:10:59.092Z,63.33
2023-02-16T07:13:26.243Z,60.83
2023-02-16T07:15:53.057Z,61.87
2023-02-16T07:18:20.166Z,64.43
2023-02-16T07:20:51.136Z,64.83
2023-02-16T07:23:18.326Z,66.20
2023-02-16T07:25:45.067Z,65.53
2023-02-16T07:28:12.209Z,62.70
2023-02-16T07:30:38.994Z,62.70
2023-02-16T07:33:08.971Z,62.23
2023-02-16T07:35:36.187Z,60.43
2023-02-16T07:38:04.964Z,61.47
2023-02-16T07:40:31.893Z,61.23
2023-02-16T07:43:03.507Z,61.83
2023-02-16T07:45:32.676Z,59.63
2023-02-16T07:48:01.284Z,58.23
2023-02-16T07:50:28.228Z,58.50
2023-02-16T07:52:55.246Z,57.40
2023-02-16T07:55:22.634Z,53.40
2023-02-16T07:57:54.598Z,53.10
2023-02-16T08:00:22.275Z,53.33
2023-02-16T08:02:49.791Z,57.20
2023-02-16T08:05:16.902Z,54.33
2023-02-16T08:07:46.534Z,56.57
2023-02-16T08:10:13.645Z,58.07
2023-02-16T08:12:40.682Z,57.03
2023-02-16T08:15:08.256Z,55.00
2023-02-16T08:17:36.153Z,55.13
2023-02-16T08:20:05.325Z,56.63
2023-02-16T08:22:32.821Z,53.27
2023-02-16T08:24:59.915Z,52.53
2023-02-16T08:27:27.075Z,54.47
2023-02-16T08:29:54.218Z,54.97
2023-02-16T08:32:21.422Z,55.33
2023-02-16T08:34:48.257Z,54.60
2023-02-16T08:37:15.500Z,53.37
2023-02-16T08:39:42.575Z,49.57
2023-02-16T08:42:13.146Z,48.70
2023-02-16T08:44:41.048Z,48.30
2023-02-16T08:47:09.513Z,48.00
2023-02-16T08:49:36.530Z,46.77
2023-02-16T08:52:05.187Z,47.00
2023-02-16T08:54:33.424Z,47.97
2023-02-16T08:57:02.872Z,49.20
2023-02-16T08:59:30.424Z,46.87
2023-02-16T09:01:58.497Z,45.67
2023-02-16T09:04:27.508Z,45.17
2023-02-16T09:06:56.233Z,46.53
2023-02-16T09:09:23.012Z,46.70
2023-02-16T09:11:50.377Z,46.13
2023-02-16T09:14:21.588Z,44.80
2023-02-16T09:16:49.075Z,44.40
2023-02-16T09:19:19.074Z,44.13
2023-02-16T09:21:47.292Z,42.77
2023-02-16T09:24:14.353Z,45.10
2023-02-16T09:26:42.958Z,42.10
2023-02-16T09:29:13.998Z,42.03
2023-02-16T09:31:44.340Z,41.67
2023-02-16T09:34:22.675Z,42.47
2023-02-16T09:36:50.348Z,41.57
2023-02-16T09:39:17.736Z,43.57
2023-02-16T09:42:14.943Z,42.60
2023-02-16T09:45:01.004Z,43.07
2023-02-16T09:47:31.443Z,42.30
2023-02-16T09:50:03.847Z,43.23
2023-02-16T09:52:40.431Z,43.27
2023-02-16T09:55:14.559Z,41.07
2023-02-16T09:58:05.855Z,42.33
2023-02-16T10:00:32.649Z,41.23
2023-02-16T10:03:18.354Z,42.57
2023-02-16T10:05:58.169Z,40.80
2023-02-16T10:08:31.277Z,40.70
2023-02-16T10:11:01.882Z,42.73
2023-02-16T10:13:41.374Z,42.00
2023-02-16T10:16:17.039Z,41.77
2023-02-16T10:18:51.786Z,38.50
2023-02-16T10:21:24.565Z,41.23
2023-02-16T10:24:05.486Z,42.67
2023-02-16T10:26:35.303Z,41.03
2023-02-16T10:29:15.802Z,39.50
2023-02-16T10:31:44.342Z,40.30
2023-02-16T10:34:18.258Z,40.40
2023-02-16T10:37:16.515Z,39.92
2023-02-16T10:39:53.300Z,38.38
2023-02-16T10:42:44.465Z,39.08
2023-02-16T10:45:14.321Z,40.15
2023-02-16T10:47:43.471Z,40.13
2023-02-16T10:50:25.793Z,40.23
2023-02-16T10:52:57.707Z,41.63
2023-02-16T10:55:25.144Z,37.63
2023-02-16T10:57:56.399Z,38.17
2023-02-16T11:00:33.519Z,36.10
2023-02-16T11:03:03.023Z,36.63
2023-02-16T11:05:34.689Z,37.37
2023-02-16T11:08:02.674Z,35.77
2023-02-16T11:10:43.948Z,35.97
2023-02-16T11:13:35.920Z,35.57
2023-02-16T11:16:11.907Z,36.83
2023-02-16T11:18:41.886Z,38.37
2023-02-16T11:21:12.197Z,36.17
2023-02-16T11:23:43.492Z,36.40
2023-02-16T11:26:10.553Z,35.07
2023-02-16T11:28:43.142Z,35.53
2023-02-16T11:31:33.413Z,33.33
2023-02-16T11:34:05.963Z,33.70
2023-02-16T11:36:40.466Z,34.27
2023-02-16T11:39:25.367Z,32.50
2023-02-16T11:42:22.876Z,32.63
2023-02-16T11:44:55.506Z,32.97
2023-02-16T11:47:22.493Z,31.33
2023-02-16T11:50:05.381Z,31.97
2023-02-16T11:52:34.483Z,33.17
2023-02-16T11:55:03.097Z,34.77
2023-02-16T11:57:35.873Z,34.80
2023-02-16T12:00:16.062Z,32.83
2023-02-16T12:02:58.378Z,33.23
2023-02-16T12:05:59.324Z,31.60
2023-02-16T12:08:48.077Z,33.33
2023-02-16T12:11:44.310Z,33.63
2023-02-16T12:14:38.337Z,32.67
2023-02-16T12:17:40.659Z,31.98
2023-02-16T12:20:26.707Z,33.45
2023-02-16T12:23:12.728Z,32.03
2023-02-16T12:25:47.801Z,30.63
2023-02-16T12:28:24.331Z,32.17
2023-02-16T12:31:05.068Z,32.17
2023-02-16T12:33:54.121Z,29.90
2023-02-16T12:36:32.956Z,33.33
2023-02-16T12:39:12.244Z,31.67
2023-02-16T12:41:53.747Z,30.40
2023-02-16T12:44:33.189Z,31.40
2023-02-16T12:47:08.262Z,31.53
2023-02-16T12:49:53.373Z,32.38
2023-02-16T12:52:23.205Z,30.70
2023-02-16T12:54:59.005Z,30.63
2023-02-16T12:57:30.867Z,31.03
2023-02-16T13:00:04.192Z,32.55
2023-02-16T13:02:37.056Z,33.57
2023-02-16T13:05:10.230Z,32.95
2023-02-16T13:07:43.069Z,33.67
2023-02-16T13:10:28.304Z,32.80
2023-02-16T13:13:00.883Z,33.20
2023-02-16T13:15:46.044Z,35.47
2023-02-16T13:18:23.988Z,35.70
2023-02-16T13:20:56.490Z,35.55
2023-02-16T13:23:52.500Z,36.42
2023-02-16T13:26:57.273Z,36.80
2023-02-16T13:29:30.182Z,37.22
2023-02-16T13:35:12.884Z,35.65
2023-02-16T13:38:10.962Z,36.03
2023-02-16T13:40:56.039Z,36.55
2023-02-16T13:43:43.427Z,34.25
2023-02-16T13:46:28.598Z,37.08
2023-02-16T13:48:56.080Z,35.20
2023-02-16T13:51:27.378Z,38.08
2023-02-16T13:53:57.899Z,40.30
2023-02-16T13:56:30.970Z,38.08
2023-02-16T13:59:19.622Z,37.38
2023-02-16T14:01:49.168Z,38.85
2023-02-16T14:04:22.052Z,38.42
2023-02-16T14:07:01.332Z,38.43
2023-02-16T14:09:47.634Z,37.93
2023-02-16T14:12:36.182Z,37.23
2023-02-16T14:15:07.620Z,38.20
2023-02-16T14:17:35.650Z,36.87
2023-02-16T14:20:15.773Z,37.77
2023-02-16T14:22:45.987Z,37.63
2023-02-16T14:25:24.769Z,37.93
2023-02-16T14:28:01.258Z,38.83
2023-02-16T14:30:43.162Z,38.87
2023-02-16T14:33:11.940Z,37.13
2023-02-16T14:35:41.879Z,36.30
2023-02-16T14:38:27.374Z,39.27
2023-02-16T14:41:03.423Z,37.67
2023-02-16T14:43:40.750Z,37.20
2023-02-16T14:46:41.827Z,36.90
2023-02-16T14:49:38.039Z,41.00
2023-02-16T14:52:07.706Z,40.07
2023-02-16T14:55:02.591Z,39.70
2023-02-16T14:57:53.315Z,38.83
2023-02-16T15:00:34.347Z,39.40
2023-02-16T15:03:15.445Z,39.80
2023-02-16T15:05:43.365Z,39.07
2023-02-16T15:08:17.819Z,38.50
2023-02-16T15:10:46.492Z,38.80
2023-02-16T15:13:30.977Z,39.03
2023-02-16T15:16:02.393Z,38.93
2023-02-16T15:18:40.361Z,39.57
2023-02-16T15:21:25.006Z,40.13
2023-02-16T15:23:54.079Z,40.63
2023-02-16T15:26:29.356Z,42.67
2023-02-16T15:28:58.312Z,42.13
2023-02-16T15:31:31.630Z,41.93
2023-02-16T15:34:02.081Z,44.93
2023-02-16T15:36:38.348Z,46.63
2023-02-16T15:39:09.641Z,42.33
2023-02-16T15:41:39.475Z,44.30
2023-02-16T15:44:15.656Z,45.13
2023-02-16T15:46:43.755Z,50.97
2023-02-16T15:49:21.416Z,53.03
2023-02-16T15:51:49.370Z,44.83
2023-02-16T15:54:25.241Z,43.40
2023-02-16T15:56:55.112Z,42.47
2023-02-16T15:59:38.992Z,42.60
2023-02-16T16:02:24.416Z,41.20
2023-02-16T16:04:55.492Z,40.33
2023-02-16T16:07:27.614Z,40.97
2023-02-16T16:09:56.692Z,40.90
2023-02-16T16:12:25.723Z,39.67
2023-02-16T16:14:58.873Z,40.33
2023-02-16T16:17:32.405Z,41.90
2023-02-16T16:20:19.075Z,42.10
2023-02-16T16:22:46.097Z,39.13
2023-02-16T16:25:33.980Z,38.90
2023-02-16T16:28:02.082Z,40.53
2023-02-16T16:30:32.119Z,41.57
2023-02-16T16:33:03.589Z,41.10
2023-02-16T16:35:50.492Z,43.63
2023-02-16T16:38:25.350Z,41.87
2023-02-16T16:40:55.557Z,42.23
2023-02-16T16:43:28.745Z,44.17
2023-02-16T16:46:11.397Z,42.07
2023-02-16T16:48:44.291Z,43.73
2023-02-16T16:51:34.400Z,47.33
2023-02-16T16:54:04.196Z,48.83
2023-02-16T16:56:36.503Z,52.77
2023-02-16T16:59:04.336Z,54.60
2023-02-16T17:01:32.166Z,46.20
2023-02-16T17:03:59.492Z,53.83
2023-02-16T17:06:26.912Z,45.53
2023-02-16T17:08:55.251Z,47.17
2023-02-16T17:11:27.737Z,51.90
2023-02-16T17:13:57.208Z,48.93
2023-02-16T17:16:29.548Z,53.10
2023-02-16T17:18:56.687Z,50.93
2023-02-16T17:21:23.522Z,51.23
2023-02-16T17:23:53.438Z,53.20
2023-02-16T17:26:21.882Z,53.33
2023-02-16T17:28:49.570Z,55.60
2023-02-16T17:31:16.722Z,53.93
2023-02-16T17:33:44.796Z,53.33
2023-02-16T17:36:14.519Z,59.23
2023-02-16T17:38:42.369Z,60.37
2023-02-16T17:41:19.263Z,60.93
2023-02-16T17:43:46.352Z,54.80
2023-02-16T17:46:14.720Z,58.67
2023-02-16T17:48:41.942Z,57.00
2023-02-16T17:51:21.053Z,66.37
2023-02-16T17:53:48.188Z,57.43
2023-02-16T17:56:17.516Z,53.37
2023-02-16T17:58:44.955Z,54.77
2023-02-16T18:01:16.553Z,57.17
2023-02-16T18:03:43.569Z,68.47
2023-02-16T18:06:15.490Z,58.77
2023-02-16T18:08:42.972Z,55.13
2023-02-16T18:11:10.412Z,55.77
2023-02-16T18:13:37.586Z,57.27
2023-02-16T18:16:07.134Z,51.40
2023-02-16T18:18:36.750Z,58.27
2023-02-16T18:21:03.749Z,57.53
2023-02-16T18:23:31.409Z,53.33
2023-02-16T18:25:58.242Z,51.77
2023-02-16T18:28:28.333Z,50.60
2023-02-16T18:30:55.453Z,57.73
2023-02-16T18:33:23.218Z,51.83
2023-02-16T18:35:56.017Z,52.03
2023-02-16T18:38:23.894Z,52.27
2023-02-16T18:40:53.012Z,58.47
2023-02-16T18:43:21.100Z,52.10
2023-02-16T18:45:48.109Z,52.97
2023-02-16T18:48:15.215Z,61.80
2023-02-16T18:50:42.028Z,60.13
2023-02-16T18:53:09.139Z,59.53
2023-02-16T18:55:36.150Z,58.33
2023-02-16T18:58:07.892Z,57.57
2023-02-16T19:00:36.010Z,51.63
2023-02-16T19:03:03.524Z,50.60
2023-02-16T19:05:30.798Z,52.63
2023-02-16T19:07:57.849Z,54.93
2023-02-16T19:10:25.154Z,57.47
2023-02-16T19:12:52.401Z,58.70
2023-02-16T19:15:19.269Z,53.03
2023-02-16T19:17:46.365Z,54.80
2023-02-16T19:20:17.974Z,58.33
2023-02-16T19:22:46.518Z,54.00
2023-02-16T19:25:14.325Z,56.77
2023-02-16T19:27:42.337Z,55.33
2023-02-16T19:30:10.040Z,52.13
2023-02-16T19:32:38.503Z,50.73
2023-02-16T19:35:05.373Z,51.30
2023-02-16T19:37:32.522Z,59.93
2023-02-16T19:39:59.246Z,57.13
2023-02-16T19:42:26.326Z,52.87
2023-02-16T19:44:53.162Z,48.07
2023-02-16T19:47:20.410Z,50.63
2023-02-16T19:49:47.262Z,52.50
2023-02-16T19:52:14.425Z,52.83
2023-02-16T19:54:41.362Z,48.40
2023-02-16T19:57:08.469Z,65.23
2023-02-16T19:59:35.374Z,56.43
2023-02-16T20:02:02.458Z,50.00
2023-02-16T20:04:29.406Z,49.57
2023-02-16T20:06:56.555Z,50.10
2023-02-16T20:09:24.452Z,55.13
2023-02-16T20:11:52.026Z,53.37
2023-02-16T20:14:18.923Z,51.70
2023-02-16T20:16:46.213Z,49.03
2023-02-16T20:19:13.067Z,48.63
2023-02-16T20:21:44.037Z,54.97
2023-02-16T20:24:11.690Z,50.83
2023-02-16T20:26:44.539Z,50.23
2023-02-16T20:29:13.845Z,50.63
2023-02-16T20:31:54.565Z,48.47
2023-02-16T20:34:21.674Z,48.53
2023-02-16T20:36:48.953Z,48.13
2023-02-16T20:39:15.887Z,47.07
2023-02-16T20:41:43.168Z,48.27
2023-02-16T20:44:10.991Z,46.27
2023-02-16T20:46:39.759Z,46.93
2023-02-16T20:49:07.522Z,45.87
2023-02-16T20:51:35.249Z,44.90
2023-02-16T20:54:03.287Z,43.23
2023-02-16T20:56:30.401Z,45.47
2023-02-16T20:58:57.675Z,45.83
2023-02-16T21:01:31.213Z,45.83
2023-02-16T21:04:00.235Z,45.80
2023-02-16T21:06:28.509Z,46.43
2023-02-16T21:08:55.791Z,45.40
2023-02-16T21:11:23.529Z,45.20
2023-02-16T21:13:50.352Z,46.27
2023-02-16T21:16:17.941Z,44.00
2023-02-16T21:18:45.093Z,43.33
2023-02-16T21:21:18.063Z,43.60
2023-02-16T21:23:48.085Z,43.83
2023-02-16T21:26:16.431Z,44.23
2023-02-16T21:28:43.557Z,45.87
2023-02-16T21:31:14.430Z,42.73
2023-02-16T21:33:41.630Z,42.13
2023-02-16T21:36:11.774Z,43.93
2023-02-16T21:38:40.243Z,43.60
2023-02-16T21:41:25.731Z,44.77
2023-02-16T21:43:55.858Z,44.77
2023-02-16T21:46:23.516Z,44.33
2023-02-16T21:48:50.431Z,43.93
2023-02-16T21:51:24.311Z,42.40
2023-02-16T21:53:53.242Z,45.87
2023-02-16T21:56:43.241Z,42.73
2023-02-16T21:59:15.080Z,44.63
2023-02-16T22:01:45.369Z,46.90
2023-02-16T22:04:14.460Z,48.23
2023-02-16T22:06:44.366Z,47.87
2023-02-16T22:09:19.980Z,46.53
2023-02-16T22:11:47.751Z,44.73
2023-02-16T22:14:14.714Z,45.70
2023-02-16T22:16:44.673Z,46.33
2023-02-16T22:19:13.481Z,46.53
2023-02-16T22:21:42.146Z,45.87
2023-02-16T22:24:12.632Z,45.70
2023-02-16T22:26:39.698Z,46.17
2023-02-16T22:29:07.565Z,43.30
2023-02-16T22:31:35.828Z,46.67
2023-02-16T22:34:05.976Z,45.50
2023-02-16T22:36:33.639Z,46.90
2023-02-16T22:39:00.366Z,45.43
2023-02-16T22:41:27.411Z,48.23
2023-02-16T22:43:55.740Z,46.27
2023-02-16T22:46:24.292Z,45.70
2023-02-16T22:48:52.057Z,45.50
2023-02-16T22:51:21.074Z,45.00
2023-02-16T22:53:48.666Z,46.47
2023-02-16T22:56:17.570Z,48.70
2023-02-16T22:58:45.393Z,46.27
2023-02-16T23:01:15.230Z,47.50
2023-02-16T23:03:42.863Z,45.77
2023-02-16T23:06:18.645Z,48.70
2023-02-16T23:08:47.091Z,48.67
2023-02-16T23:11:14.181Z,47.90
2023-02-16T23:13:40.904Z,47.43
2023-02-16T23:16:12.226Z,49.50
2023-02-16T23:18:39.249Z,48.10
2023-02-16T23:21:14.823Z,48.43
2023-02-16T23:23:41.820Z,47.23
2023-02-16T23:26:09.498Z,49.10
2023-02-16T23:28:37.890Z,47.70
2023-02-16T23:31:05.479Z,48.27
2023-02-16T23:33:32.331Z,49.60
2023-02-16T23:35:59.352Z,48.03
2023-02-16T23:38:26.953Z,48.13
2023-02-16T23:41:05.836Z,47.07
2023-02-16T23:43:33.358Z,46.60
2023-02-16T23:46:01.573Z,46.07
2023-02-16T23:48:29.510Z,46.40
2023-02-16T23:50:57.434Z,47.23
2023-02-16T23:53:27.577Z,46.17
2023-02-16T23:56:02.135Z,44.93
2023-02-16T23:58:30.870Z,43.93
